Tinian Mariana Islands, Northern Mariana Islands
Current Conditions -  °F | °C
As of 1:54 PM on Thursday 29 Jan 2015 (Local Time) from PGSN Reporting Station
Scattered Clouds Scattered Clouds  
Wind Chill: 86°   Ceiling: Unl
Heat Index: 91°   Visibility: 10mi
Dew Point: 71°   Wind: 7mph
Humidity: 61%   Direction: 310°NW
Pressure: 29.83"   Gusts: NA
Location:  15.084°N, 145.652°E
Report Text: PGSN 290354Z 31006KT 10SM FEW021 SCT029 30/22 A2983 RMK AO2 SLP124 T03000217 PNO $
Loading
Personal Weather Stations






























Interactive Weather Map New forecast layout! Learn more

10-Day Weather Forecast

Advertisements
Track Severe Weather on mobile